Time;durP1;ratioP1;P1;durP2;ratioP2;P2;SDS_P1;SDS_P2;PMS_P1;PMS_P2;Temp;Humidity;BMP_temperature;BMP_pressure;BME280_temperature;BME280_humidity;BME280_pressure;Samples;Min_cycle;Max_cycle;Signal;HPM_P1;HPM_P2
2023/02/23 00:02:04;;;;;;;8.18;4.12;;;;;;;-1.45;64.85;100790.65;1806785;78;25573;-44
2023/02/23 00:04:26;;;;;;;10.03;5.12;;;;;;;-1.44;64.62;100783.00;1809288;78;27481;-45
2023/02/23 00:06:52;;;;;;;10.13;4.90;;;;;;;-1.42;65.07;100789.41;1821827;77;25836;-44
2023/02/23 00:09:22;;;;;;;8.93;4.83;;;;;;;-1.42;64.96;100787.56;1833436;77;25828;-44
2023/02/23 00:11:54;;;;;;;10.32;5.50;;;;;;;-1.42;65.07;100787.56;1833263;77;25516;-43
2023/02/23 00:14:26;;;;;;;6.70;3.87;;;;;;;-1.40;65.21;100784.70;1823748;77;25866;-44
2023/02/23 00:16:55;;;;;;;10.53;4.55;;;;;;;-1.39;65.21;100785.81;1815858;77;27424;-43
2023/02/23 00:19:23;;;;;;;7.20;3.52;;;;;;;-1.37;65.07;100782.94;1828401;77;25664;-43
2023/02/23 00:21:51;;;;;;;7.22;3.83;;;;;;;-1.38;65.13;100783.47;1836692;77;25365;-44
2023/02/23 00:24:19;;;;;;;8.18;4.03;;;;;;;-1.36;65.31;100778.75;1813403;77;25607;-43
2023/02/23 00:26:50;;;;;;;6.17;3.25;;;;;;;-1.36;65.17;100774.77;1807280;77;25768;-44
2023/02/23 00:29:19;;;;;;;;;;;;;;;-1.33;65.58;100774.83;1807889;77;27424;-43
2023/02/23 00:31:48;;;;;;;;;;;;;;;-1.32;65.82;100782.58;1800599;78;25337;-41
2023/02/23 00:34:22;;;;;;;7.50;4.43;;;;;;;-1.30;65.58;100779.70;1795072;77;25526;-42
2023/02/23 00:36:54;;;;;;;9.35;4.62;;;;;;;-1.30;65.53;100784.22;1825409;77;26437;-44
2023/02/23 00:39:23;;;;;;;10.80;4.87;;;;;;;-1.29;65.86;100782.67;1828074;77;25593;-43
2023/02/23 00:41:55;;;;;;;8.00;4.47;;;;;;;-1.29;65.96;100781.34;1821390;77;28180;-42
2023/02/23 00:44:22;;;;;;;11.48;5.50;;;;;;;-1.28;66.05;100776.31;1819697;77;25599;-42
2023/02/23 00:46:50;;;;;;;9.70;4.75;;;;;;;-1.29;66.23;100776.53;1823722;77;25433;-43
2023/02/23 00:49:21;;;;;;;8.23;4.33;;;;;;;-1.27;65.90;100779.80;1802902;77;25452;-42
2023/02/23 00:51:47;;;;;;;11.97;4.67;;;;;;;-1.28;65.96;100773.66;1829380;77;25386;-42
2023/02/23 00:54:17;;;;;;;11.00;5.45;;;;;;;-1.28;66.17;100770.20;1792033;79;28005;-42
2023/02/23 00:56:46;;;;;;;6.97;4.47;;;;;;;-1.28;66.21;100770.20;1803648;79;25405;-43
2023/02/23 00:59:14;;;;;;;8.88;4.80;;;;;;;-1.28;66.25;100768.87;1825429;77;25614;-43
2023/02/23 01:01:43;;;;;;;13.60;6.17;;;;;;;-1.30;66.14;100765.11;1832625;78;25580;-46
2023/02/23 01:04:12;;;;;;;7.97;4.65;;;;;;;-1.29;66.44;100769.40;1833743;77;25540;-44
2023/02/23 01:06:40;;;;;;;14.98;7.00;;;;;;;-1.27;66.45;100766.00;1833457;78;27483;-43
2023/02/23 01:09:12;;;;;;;10.80;4.67;;;;;;;-1.27;66.42;100764.67;1834772;77;25882;-42
2023/02/23 01:11:40;;;;;;;13.98;8.90;;;;;;;-1.28;66.37;100759.06;1829925;77;25524;-42
2023/02/23 01:14:10;;;;;;;13.75;6.87;;;;;;;-1.29;66.52;100761.94;1826921;78;25638;-45
2023/02/23 01:16:37;;;;;;;14.05;8.08;;;;;;;-1.29;66.52;100753.97;1820592;77;25744;-43
2023/02/23 01:19:06;;;;;;;11.08;5.28;;;;;;;-1.30;66.80;100763.78;1830929;78;27481;-42
2023/02/23 01:21:41;;;;;;;12.63;6.87;;;;;;;-1.30;66.61;100755.82;1832453;78;25571;-43
2023/02/23 01:24:10;;;;;;;10.72;5.42;;;;;;;-1.31;66.66;100754.22;1828489;77;25537;-44
2023/02/23 01:26:41;;;;;;;11.20;4.92;;;;;;;-1.30;66.84;100752.36;1817508;77;25603;-43
2023/02/23 01:29:16;;;;;;;8.80;4.53;;;;;;;-1.30;66.91;100755.02;1796685;79;25691;-42
2023/02/23 01:31:47;;;;;;;10.65;4.87;;;;;;;-1.32;66.88;100755.23;1816001;78;27501;-43
2023/02/23 01:34:17;;;;;;;9.08;4.78;;;;;;;-1.34;66.99;100751.99;1810045;78;25505;-42
2023/02/23 01:36:45;;;;;;;12.63;5.00;;;;;;;-1.33;67.13;100746.47;1823507;77;25456;-43
2023/02/23 01:39:19;;;;;;;13.65;6.80;;;;;;;-1.33;67.37;100745.14;1816273;77;27616;-43
2023/02/23 01:41:46;;;;;;;11.12;5.55;;;;;;;-1.30;67.26;100749.70;1829640;77;25512;-44
2023/02/23 01:44:21;;;;;;;13.20;6.83;;;;;;;-1.33;67.24;100742.48;1819095;77;29761;-44
2023/02/23 01:46:49;;;;;;;12.82;4.97;;;;;;;-1.32;67.44;100748.07;1821819;77;25657;-44
2023/02/23 01:49:20;;;;;;;13.43;5.95;;;;;;;-1.32;67.34;100738.78;1835213;77;25709;-43
2023/02/23 01:52:01;;;;;;;14.50;6.60;;;;;;;-1.30;67.49;100740.42;1814988;77;25766;-41
2023/02/23 01:54:35;;;;;;;15.83;8.48;;;;;;;-1.31;67.64;100734.31;1800822;77;25593;-43
2023/02/23 01:57:04;;;;;;;10.70;5.42;;;;;;;-1.33;67.60;100728.38;1839372;77;27473;-44
2023/02/23 01:59:45;;;;;;;14.85;8.38;;;;;;;-1.34;67.73;100728.91;1821123;77;25789;-44
2023/02/23 02:02:17;;;;;;;10.78;5.87;;;;;;;-1.35;67.79;100722.48;1820411;77;25560;-42
2023/02/23 02:04:44;;;;;;;10.85;5.58;;;;;;;-1.36;67.63;100723.54;1808068;79;25671;-44
2023/02/23 02:07:18;;;;;;;11.48;5.58;;;;;;;-1.39;67.82;100719.47;1816699;78;25526;-43
2023/02/23 02:12:33;;;;;;;11.35;6.62;;;;;;;-1.41;68.04;100722.05;1823734;77;25561;-42
2023/02/23 02:15:03;;;;;;;12.78;5.03;;;;;;;-1.44;68.04;100716.66;1841415;77;25356;-44
2023/02/23 02:18:07;;;;;;;15.03;6.87;;;;;;;-1.47;68.10;100722.39;1834086;77;26013;-42
2023/02/23 02:21:22;;;;;;;13.88;7.10;;;;;;;-1.46;68.43;100720.55;1842055;77;25500;-42
2023/02/23 02:24:14;;;;;;;11.08;5.33;;;;;;;-1.46;68.50;100727.17;1821841;77;27472;-44
2023/02/23 02:27:18;;;;;;;17.00;12.45;;;;;;;-1.49;68.46;100724.98;1802180;77;25525;-45
2023/02/23 02:30:18;;;;;;;16.27;7.28;;;;;;;-1.49;68.63;100721.00;1805583;78;25500;-43
2023/02/23 02:32:56;;;;;;;16.17;13.70;;;;;;;-1.50;68.96;100721.50;1824772;77;25583;-45
2023/02/23 02:35:37;;;;;;;19.73;17.85;;;;;;;-1.51;68.97;100721.22;1825676;77;25720;-43
2023/02/23 02:38:19;;;;;;;10.08;5.15;;;;;;;-1.52;69.13;100712.95;1820590;77;27475;-42
2023/02/23 02:40:54;;;;;;;12.73;6.10;;;;;;;-1.53;69.20;100718.78;1811930;78;25420;-42
2023/02/23 02:43:31;;;;;;;12.03;5.40;;;;;;;-1.54;69.23;100714.49;1827208;77;25526;-43
2023/02/23 02:46:12;;;;;;;9.68;5.40;;;;;;;-1.55;69.21;100712.05;1851555;77;27777;-43
2023/02/23 02:48:47;;;;;;;16.15;8.43;;;;;;;-1.57;69.34;100712.80;1829223;77;25352;-45
2023/02/23 02:51:44;;;;;;;9.43;4.45;;;;;;;-1.60;69.45;100710.08;1821957;77;27599;-43
2023/02/23 02:54:19;;;;;;;10.45;5.28;;;;;;;-1.66;69.48;100712.27;1826784;77;25428;-44
2023/02/23 02:56:48;;;;;;;10.28;4.67;;;;;;;-1.70;69.58;100707.11;1850616;77;25514;-43
2023/02/23 04:18:38;;;;;;;13.00;4.72;;;;;;;-2.66;74.26;100724.31;1822529;77;27335;-43
2023/02/23 04:21:06;;;;;;;10.18;5.05;;;;;;;-2.67;74.46;100720.58;1837177;77;26036;-43
2023/02/23 04:23:35;;;;;;;10.18;5.22;;;;;;;-2.68;74.19;100717.61;1822579;77;25414;-43
2023/02/23 04:26:01;;;;;;;11.28;5.20;;;;;;;-2.68;74.38;100716.30;1823783;76;35059;-43
2023/02/23 04:28:28;;;;;;;14.40;5.83;;;;;;;-2.68;74.68;100721.59;1833893;77;25545;-44
2023/02/23 04:30:54;;;;;;;10.90;5.12;;;;;;;-2.66;75.23;100719.02;1834705;77;27411;-43
2023/02/23 04:33:24;;;;;;;11.68;5.35;;;;;;;-2.66;75.25;100720.34;1838333;77;25852;-43
2023/02/23 04:35:55;;;;;;;10.60;5.75;;;;;;;-2.66;75.36;100721.66;1842249;77;25545;-42
2023/02/23 04:38:23;;;;;;;9.40;5.08;;;;;;;-2.65;75.55;100713.23;1820983;77;25719;-43
2023/02/23 04:40:50;;;;;;;8.93;4.67;;;;;;;-2.64;75.66;100717.48;1835138;77;25554;-43
2023/02/23 04:43:16;;;;;;;14.53;5.12;;;;;;;-2.63;76.03;100714.63;1820110;77;27562;-43
2023/02/23 04:45:44;;;;;;;17.00;5.60;;;;;;;-2.60;76.33;100714.73;1826945;76;25577;-42
2023/02/23 04:48:12;;;;;;;12.07;5.72;;;;;;;-2.58;76.45;100715.33;1800139;78;25838;-43
2023/02/23 04:50:38;;;;;;;11.78;5.15;;;;;;;-2.53;76.67;100712.85;1813141;77;25652;-43
2023/02/23 04:53:05;;;;;;;11.83;5.85;;;;;;;-2.48;76.65;100714.87;1828378;76;25522;-44
2023/02/23 04:55:31;;;;;;;15.68;5.92;;;;;;;-2.46;76.75;100711.50;1834518;77;27453;-43
2023/02/23 04:58:01;;;;;;;12.78;5.47;;;;;;;-2.42;76.67;100715.86;1843538;77;25800;-44
2023/02/23 05:00:30;;;;;;;12.05;5.92;;;;;;;-2.40;76.89;100713.31;1814841;78;25566;-45
2023/02/23 05:02:57;;;;;;;13.30;6.50;;;;;;;-2.36;76.85;100715.82;1824894;77;25581;-44
2023/02/23 05:05:23;;;;;;;16.10;5.80;;;;;;;-2.31;77.11;100718.64;1836741;77;25616;-44
2023/02/23 05:07:50;;;;;;;15.20;6.58;;;;;;;-2.28;76.93;100710.27;1827451;77;27486;-44
2023/02/23 05:10:17;;;;;;;12.65;5.20;;;;;;;-2.25;77.03;100709.02;1814166;77;27368;-42
2023/02/23 05:12:43;;;;;;;15.30;5.78;;;;;;;-2.22;76.95;100711.25;1820083;77;25501;-43
2023/02/23 05:15:10;;;;;;;11.63;5.70;;;;;;;-2.17;76.94;100711.94;1822112;77;27721;-42
2023/02/23 05:17:44;;;;;;;10.70;5.97;;;;;;;-2.15;77.02;100712.53;1821848;77;25605;-42
2023/02/23 05:20:13;;;;;;;14.63;5.70;;;;;;;-2.13;77.02;100709.15;1808964;77;27454;-43
2023/02/23 05:22:40;;;;;;;10.30;6.10;;;;;;;-2.08;77.16;100710.16;1825410;77;30149;-43
2023/02/23 05:25:10;;;;;;;12.15;5.58;;;;;;;-2.05;77.26;100711.55;1813621;77;25814;-43
2023/02/23 05:27:38;;;;;;;10.63;5.35;;;;;;;-2.05;77.42;100708.89;1838083;77;26440;-43
2023/02/23 05:30:08;;;;;;;12.40;5.65;;;;;;;-2.00;77.35;100713.56;1835248;77;25485;-43
2023/02/23 05:32:35;;;;;;;11.05;4.53;;;;;;;-1.98;77.39;100716.80;1847611;77;28300;-43
2023/02/23 05:35:04;;;;;;;12.00;5.55;;;;;;;-1.96;77.53;100709.44;1835086;77;25399;-43
2023/02/23 05:37:30;;;;;;;11.90;5.33;;;;;;;-1.94;77.47;100712.19;1839822;76;25684;-43
2023/02/23 05:39:57;;;;;;;13.50;5.83;;;;;;;-1.90;77.43;100709.91;1822623;77;26163;-43
2023/02/23 05:42:23;;;;;;;13.70;6.10;;;;;;;-1.87;77.54;100706.84;1807177;78;25766;-44
2023/02/23 05:44:49;;;;;;;10.75;5.53;;;;;;;-1.84;77.49;100712.20;1829516;77;27441;-43
2023/02/23 05:47:16;;;;;;;10.65;4.60;;;;;;;-1.82;77.58;100711.47;1834937;77;25709;-47
2023/02/23 05:49:45;;;;;;;12.40;5.10;;;;;;;-1.81;77.58;100713.11;1819584;77;25832;-44
2023/02/23 05:52:11;;;;;;;10.53;5.03;;;;;;;-1.78;77.58;100718.78;1833439;77;25569;-44
2023/02/23 05:54:37;;;;;;;8.90;4.55;;;;;;;-1.75;77.57;100711.73;1818965;77;25387;-43
2023/02/23 05:57:04;;;;;;;10.20;4.42;;;;;;;-1.73;77.47;100715.49;1821489;77;27520;-44
2023/02/23 05:59:30;;;;;;;10.05;5.00;;;;;;;-1.71;77.53;100715.56;1829347;77;25649;-43
2023/02/23 06:01:57;;;;;;;11.25;4.62;;;;;;;-1.66;77.47;100717.56;1821302;77;25655;-43
2023/02/23 06:04:23;;;;;;;9.35;4.45;;;;;;;-1.64;77.38;100716.83;1818852;77;25671;-47
2023/02/23 06:06:49;;;;;;;10.40;4.92;;;;;;;-1.62;77.28;100712.63;1821125;77;25486;-43
2023/02/23 06:09:17;;;;;;;7.65;4.03;;;;;;;-1.58;77.26;100720.47;1825229;77;27638;-49
2023/02/23 06:11:43;;;;;;;10.48;5.72;;;;;;;-1.57;77.03;100727.39;1818445;77;25572;-44
2023/02/23 06:14:12;;;;;;;11.85;5.90;;;;;;;-1.54;76.97;100721.65;1818448;78;25366;-45
2023/02/23 06:16:38;;;;;;;9.88;4.35;;;;;;;-1.54;76.83;100715.82;1826684;78;26291;-46
2023/02/23 06:19:04;;;;;;;11.18;4.28;;;;;;;-1.52;76.72;100719.06;1822583;78;25437;-43
2023/02/23 06:21:30;;;;;;;8.85;5.00;;;;;;;-1.48;76.69;100715.98;1821452;78;27440;-42
2023/02/23 06:23:59;;;;;;;11.55;4.60;;;;;;;-1.47;76.66;100714.95;1815967;78;25373;-46
2023/02/23 06:26:26;;;;;;;9.25;4.33;;;;;;;-1.43;76.60;100721.44;1838487;77;25354;-46
2023/02/23 06:28:54;;;;;;;9.30;4.20;;;;;;;-1.38;76.61;100725.58;1832930;77;25529;-45
2023/02/23 06:31:23;;;;;;;9.25;4.90;;;;;;;-1.34;76.33;100729.44;1820089;77;25407;-44
2023/02/23 06:33:50;;;;;;;10.55;5.15;;;;;;;-1.32;76.10;100726.84;1831287;77;27470;-45
2023/02/23 06:36:17;;;;;;;7.60;4.70;;;;;;;-1.28;76.24;100729.06;1830523;77;25813;-44
2023/02/23 06:38:43;;;;;;;13.38;5.30;;;;;;;-1.23;76.14;100725.23;1796852;78;25781;-44
2023/02/23 06:41:12;;;;;;;12.53;4.90;;;;;;;-1.17;76.12;100732.33;1807449;78;25582;-44
2023/02/23 06:43:39;;;;;;;7.17;4.33;;;;;;;-1.11;76.04;100733.28;1837576;77;25445;-44
2023/02/23 06:46:06;;;;;;;9.28;4.25;;;;;;;-1.08;75.66;100727.02;1828976;77;27481;-44
2023/02/23 06:48:32;;;;;;;9.68;4.85;;;;;;;-1.02;75.57;100731.95;1831179;77;25478;-44
2023/02/23 06:50:59;;;;;;;10.32;4.50;;;;;;;-1.01;75.25;100727.75;1816808;77;25378;-43
2023/02/23 06:53:27;;;;;;;7.83;4.33;;;;;;;-0.98;75.03;100737.93;1820169;77;25555;-42
2023/02/23 06:55:53;;;;;;;9.03;4.83;;;;;;;-0.96;75.27;100731.07;1842572;77;25583;-43
2023/02/23 06:58:19;;;;;;;9.98;5.00;;;;;;;-0.91;75.31;100730.42;1834747;77;27563;-42
2023/02/23 07:00:45;;;;;;;9.90;4.77;;;;;;;-0.89;74.81;100733.66;1833206;77;31166;-43
2023/02/23 07:03:11;;;;;;;10.40;4.65;;;;;;;-0.88;74.79;100736.09;1835369;77;25435;-43
2023/02/23 07:05:39;;;;;;;9.25;4.53;;;;;;;-0.83;74.89;100736.23;1818169;77;25564;-45
2023/02/23 07:08:08;;;;;;;6.95;4.40;;;;;;;-0.80;74.68;100734.47;1839703;77;25388;-43
2023/02/23 07:10:35;;;;;;;11.20;4.90;;;;;;;-0.76;74.51;100721.55;1825253;77;27530;-42
2023/02/23 07:13:02;;;;;;;11.43;4.83;;;;;;;-0.68;74.64;100725.73;1833376;77;26536;-42
2023/02/23 07:15:28;;;;;;;7.97;4.28;;;;;;;-0.64;74.40;100725.59;1812074;77;25439;-42
2023/02/23 07:17:55;;;;;;;8.73;4.87;;;;;;;-0.59;74.06;100727.88;1817029;76;25896;-45
2023/02/23 07:20:23;;;;;;;8.18;4.95;;;;;;;-0.51;74.65;100724.11;1813389;78;25762;-45
2023/02/23 07:22:50;;;;;;;11.85;4.53;;;;;;;-0.41;74.21;100723.05;1819437;78;27522;-44
2023/02/23 07:25:18;;;;;;;6.30;3.33;;;;;;;-0.32;73.35;100716.06;1827081;77;25823;-47
2023/02/23 07:27:44;;;;;;;11.08;4.55;;;;;;;-0.29;73.44;100719.60;1841806;77;25860;-43
2023/02/23 07:30:17;;;;;;;11.05;5.10;;;;;;;-0.24;73.34;100722.39;1844189;77;26448;-43
2023/02/23 07:32:43;;;;;;;11.12;5.00;;;;;;;-0.22;73.41;100720.34;1829342;77;25438;-46
2023/02/23 07:35:10;;;;;;;10.98;4.87;;;;;;;-0.16;73.01;100714.09;1820921;77;27466;-44
2023/02/23 07:37:36;;;;;;;12.90;5.37;;;;;;;-0.12;73.11;100708.64;1817138;77;25425;-42
2023/02/23 07:40:03;;;;;;;9.78;4.67;;;;;;;0.00;73.50;100706.00;1815823;77;25450;-42
2023/02/23 07:42:29;;;;;;;8.38;4.35;;;;;;;0.10;73.18;100714.23;1810381;77;25716;-43
2023/02/23 07:44:57;;;;;;;10.30;4.62;;;;;;;0.21;72.79;100721.93;1834321;77;25823;-44
2023/02/23 07:47:29;;;;;;;11.57;4.45;;;;;;;0.24;72.26;100716.66;1841834;77;28535;-43
2023/02/23 07:49:51;;;;;;;11.73;5.40;;;;;;;0.25;71.80;100716.95;1832497;77;25919;-44
2023/02/23 07:52:19;;;;;;;10.28;5.05;;;;;;;0.21;71.34;100713.15;1815508;77;25831;-44
2023/02/23 07:54:46;;;;;;;9.40;4.97;;;;;;;0.22;71.49;100714.22;1815144;77;26477;-43
2023/02/23 07:57:13;;;;;;;8.78;4.17;;;;;;;0.26;71.83;100711.94;1804987;78;25568;-46
2023/02/23 07:59:39;;;;;;;11.70;4.78;;;;;;;0.27;71.38;100707.69;1832431;77;27824;-48
2023/02/23 08:02:07;;;;;;;9.78;4.80;;;;;;;0.31;71.74;100698.23;1844259;77;25797;-43
2023/02/23 08:04:33;;;;;;;10.78;4.95;;;;;;;0.36;71.74;100697.54;1832040;77;25692;-44
2023/02/23 08:06:59;;;;;;;8.90;4.20;;;;;;;0.38;70.88;100694.66;1816956;78;25871;-43
2023/02/23 08:09:26;;;;;;;10.65;5.03;;;;;;;0.42;71.00;100685.16;1825880;77;25435;-46
2023/02/23 08:11:52;;;;;;;8.98;4.35;;;;;;;0.47;70.95;100683.94;1849162;77;27457;-45
2023/02/23 08:14:22;;;;;;;12.80;4.17;;;;;;;0.56;70.71;100693.18;1835374;77;25523;-45
2023/02/23 08:16:47;;;;;;;11.57;4.50;;;;;;;0.54;70.18;100683.29;1813916;77;25368;-44
2023/02/23 08:19:15;;;;;;;9.68;4.55;;;;;;;0.55;70.07;100695.04;1830090;77;25883;-45
2023/02/23 08:21:42;;;;;;;11.48;4.92;;;;;;;0.56;69.91;100686.52;1841389;77;25438;-47
2023/02/23 08:24:09;;;;;;;11.18;5.10;;;;;;;0.66;70.67;100682.75;1819965;77;27381;-48
2023/02/23 08:26:37;;;;;;;9.70;4.28;;;;;;;0.77;70.22;100675.81;1849423;77;25385;-46
2023/02/23 08:29:05;;;;;;;5.55;3.25;;;;;;;0.86;70.25;100681.05;1816192;78;25748;-45
2023/02/23 08:31:33;;;;;;;10.00;4.80;;;;;;;1.18;70.50;100673.17;1811542;78;26105;-47
2023/02/23 08:34:01;;;;;;;11.05;5.20;;;;;;;1.42;69.73;100665.35;1821538;77;25580;-45
2023/02/23 08:36:27;;;;;;;12.05;5.35;;;;;;;1.54;68.96;100658.64;1837140;77;28054;-43
2023/02/23 08:38:56;;;;;;;12.33;4.92;;;;;;;1.70;68.80;100657.03;1841867;77;25540;-45
2023/02/23 08:41:24;;;;;;;10.88;5.37;;;;;;;1.99;67.19;100666.31;1847653;77;25415;-44
2023/02/23 08:43:51;;;;;;;11.38;5.62;;;;;;;2.03;67.40;100666.12;1844490;77;25515;-45
2023/02/23 08:46:19;;;;;;;9.15;4.50;;;;;;;2.07;65.73;100653.91;1844520;77;25621;-43
2023/02/23 08:48:47;;;;;;;13.45;5.12;;;;;;;2.18;68.10;100651.69;1825860;77;27432;-43
2023/02/23 08:51:15;;;;;;;9.68;4.92;;;;;;;2.57;70.09;100656.22;1825007;77;25897;-43
2023/02/23 08:53:41;;;;;;;12.55;5.65;;;;;;;3.10;67.74;100652.59;1825982;77;25460;-44
2023/02/23 08:56:10;;;;;;;10.50;4.75;;;;;;;3.41;67.50;100652.95;1836030;77;25398;-42
2023/02/23 08:58:36;;;;;;;9.68;5.45;;;;;;;3.75;67.36;100653.53;1820385;77;25536;-46
2023/02/23 09:01:03;;;;;;;9.90;5.37;;;;;;;4.15;66.41;100646.08;1832882;77;27418;-44
2023/02/23 09:03:35;;;;;;;12.63;7.85;;;;;;;4.74;66.39;100649.11;1842242;77;25614;-43
2023/02/23 09:06:11;;;;;;;11.33;6.62;;;;;;;5.33;66.19;100645.27;1840613;77;25342;-43
2023/02/23 09:08:38;;;;;;;11.75;6.00;;;;;;;5.97;66.13;100640.80;1828983;77;26192;-44
2023/02/23 09:11:05;;;;;;;12.53;6.55;;;;;;;6.41;63.28;100639.41;1815286;77;25572;-44
2023/02/23 09:13:32;;;;;;;87.40;80.87;;;;;;;6.64;62.48;100630.47;1824126;77;27475;-45
2023/02/23 09:15:59;;;;;;;79.72;73.87;;;;;;;7.07;62.82;100632.98;1822818;77;25538;-44
2023/02/23 09:18:28;;;;;;;87.08;80.77;;;;;;;7.61;62.17;100623.23;1815710;78;25643;-48
2023/02/23 09:20:56;;;;;;;81.63;75.60;;;;;;;8.06;61.42;100623.69;1833245;77;25353;-44
2023/02/23 09:23:27;;;;;;;82.80;76.60;;;;;;;8.42;60.49;100634.90;1820598;78;25668;-45
2023/02/23 09:25:54;;;;;;;86.02;79.67;;;;;;;8.45;57.20;100633.02;1833485;77;27805;-42
2023/02/23 09:28:20;;;;;;;11.80;6.35;;;;;;;8.38;56.47;100627.14;1834665;77;25773;-44
2023/02/23 09:30:48;;;;;;;14.55;6.40;;;;;;;8.00;54.66;100622.38;1819010;77;25780;-43
2023/02/23 09:33:16;;;;;;;12.90;6.55;;;;;;;7.48;52.70;100624.66;1805508;77;25580;-43
2023/02/23 09:35:43;;;;;;;12.70;6.22;;;;;;;6.91;53.02;100617.98;1809723;79;25563;-49
2023/02/23 09:38:09;;;;;;;12.90;6.80;;;;;;;6.38;53.83;100620.34;1804649;78;27467;-45
2023/02/23 09:40:48;;;;;;;13.68;9.48;;;;;;;6.16;55.58;100612.88;1794991;78;25488;-46
2023/02/23 09:43:39;;;;;;;38.60;35.03;;;;;;;6.16;55.97;100615.55;1803452;78;25849;-47
2023/02/23 09:46:58;;;;;;;85.40;79.22;;;;;;;6.23;56.40;100609.91;1811729;78;26082;-42
2023/02/23 09:49:32;;;;;;;85.97;79.67;;;;;;;6.16;56.77;100603.98;1788736;79;25851;-43
2023/02/23 09:52:02;;;;;;;85.20;78.67;;;;;;;6.40;57.17;100600.16;1796567;79;27714;-42
2023/02/23 09:54:33;;;;;;;86.37;79.90;;;;;;;6.81;57.39;100597.87;1813540;77;25572;-46
2023/02/23 09:57:08;;;;;;;87.47;81.17;;;;;;;7.10;54.55;100608.77;1814943;77;25470;-44
2023/02/23 09:59:38;;;;;;;72.75;67.32;;;;;;;7.41;56.99;100593.78;1818056;77;26768;-43
2023/02/23 10:02:29;;;;;;;84.75;78.60;;;;;;;7.99;53.48;100597.86;1806363;79;25402;-44
2023/02/23 10:05:04;;;;;;;82.82;76.72;;;;;;;8.07;52.22;100595.64;1821258;77;29463;-45
2023/02/23 10:07:49;;;;;;;85.53;79.05;;;;;;;8.20;52.41;100604.40;1814833;78;25801;-44
2023/02/23 10:10:29;;;;;;;83.60;77.53;;;;;;;8.11;53.83;100590.75;1820934;77;25557;-44
2023/02/23 10:13:39;;;;;;;81.53;75.47;;;;;;;8.06;49.68;100588.66;1819862;78;26058;-45
2023/02/23 10:16:14;;;;;;;85.38;79.12;;;;;;;8.00;52.50;100581.97;1815461;77;25706;-44
2023/02/23 10:19:21;;;;;;;83.55;77.30;;;;;;;8.21;52.87;100588.50;1805978;77;28065;-43
2023/02/23 10:21:54;;;;;;;81.00;74.95;;;;;;;8.17;51.99;100586.92;1776988;79;25865;-45
2023/02/23 10:24:26;;;;;;;84.35;77.90;;;;;;;8.22;50.78;100576.61;1778465;80;25747;-44
2023/02/23 10:27:15;;;;;;;81.57;75.62;;;;;;;8.25;51.15;100572.56;1763892;80;25668;-43
2023/02/23 10:29:59;;;;;;;83.03;77.15;;;;;;;8.63;52.98;100565.94;1785578;80;25617;-44
2023/02/23 10:32:48;;;;;;;85.22;78.87;;;;;;;9.30;52.96;100554.48;1755981;80;27658;-45
2023/02/23 10:35:19;;;;;;;83.22;77.30;;;;;;;9.81;51.88;100543.39;1805919;78;25597;-47
2023/02/23 10:37:47;;;;;;;81.15;75.25;;;;;;;10.19;52.34;100547.83;1798864;78;25577;-45
2023/02/23 10:40:24;;;;;;;78.17;72.37;;;;;;;10.79;50.94;100543.64;1803711;79;25527;-45
2023/02/23 10:42:54;;;;;;;83.70;77.37;;;;;;;11.12;50.34;100535.34;1803390;79;25501;-45
2023/02/23 10:45:24;;;;;;;83.92;77.95;;;;;;;11.35;48.57;100533.43;1803767;78;27893;-44
2023/02/23 10:48:05;;;;;;;55.85;51.98;;;;;;;11.32;47.11;100529.19;1803870;78;25716;-44
2023/02/23 10:50:35;;;;;;;75.67;70.20;;;;;;;;;;1803044;78;25728;-44
2023/02/23 10:53:19;;;;;;;78.20;71.90;;;;;;;;;;1805291;78;25619;-45
2023/02/23 10:55:47;;;;;;;77.20;71.65;;;;;;;;;;1809682;78;25163;-45
2023/02/23 10:58:17;;;;;;;59.43;55.03;;;;;;;;;;1804971;78;27376;-45
2023/02/23 11:00:59;;;;;;;13.03;7.72;;;;;;;;;;1802922;78;25271;-45
2023/02/23 11:03:38;;;;;;;11.83;6.58;;;;;;;;;;1806477;78;25411;-46
2023/02/23 11:06:09;;;;;;;13.45;7.53;;;;;;;;;;1835924;77;25563;-44
2023/02/23 11:08:40;;;;;;;14.43;7.25;;;;;;;;;;1815452;77;25466;-47
2023/02/23 11:11:20;;;;;;;15.40;8.60;;;;;;;;;;1837253;77;27889;-44
2023/02/23 11:13:48;;;;;;;10.10;7.08;;;;;;;;;;1824709;77;25453;-44
2023/02/23 11:16:18;;;;;;;35.70;32.77;;;;;;;;;;1825990;77;25648;-47
2023/02/23 11:18:57;;;;;;;81.80;76.28;;;;;;;;;;1811816;78;25483;-47
2023/02/23 11:21:33;;;;;;;79.00;73.60;;;;;;;;;;1805710;78;25485;-48
2023/02/23 11:24:13;;;;;;;78.80;73.42;;;;;;;;;;1823357;77;27687;-48
2023/02/23 11:26:42;;;;;;;82.78;77.25;;;;;;;;;;1814646;78;25562;-45
2023/02/23 11:29:16;;;;;;;78.67;73.28;;;;;;;;;;1813885;77;25714;-63
2023/02/23 11:31:49;;;;;;;80.28;74.55;;;;;;;;;;1824123;78;26179;-57
2023/02/23 11:34:29;;;;;;;78.70;73.30;;;;;;;;;;1824667;77;25263;-59
2023/02/23 11:37:06;;;;;;;70.37;65.60;;;;;;;;;;1825542;77;27418;-57
2023/02/23 11:39:34;;;;;;;40.95;37.78;;;;;;;;;;1829663;77;25728;-60
2023/02/23 11:42:18;;;;;;;20.15;18.32;;;;;;;;;;1818758;77;25651;-56
2023/02/23 11:45:07;;;;;;;17.15;12.85;;;;;;;;;;1793114;77;25510;-56
2023/02/23 11:47:40;;;;;;;16.07;14.35;;;;;;;;;;1823246;77;25513;-52
2023/02/23 11:50:18;;;;;;;21.27;19.42;;;;;;;;;;1828958;77;28061;-51
2023/02/23 11:52:45;;;;;;;30.10;27.60;;;;;;;;;;1842314;77;25568;-55
2023/02/23 11:55:15;;;;;;;66.42;61.85;;;;;;;;;;1841274;77;25288;-56
2023/02/23 11:57:42;;;;;;;86.90;80.53;;;;;;;;;;1813985;77;25574;-57
2023/02/23 12:00:14;;;;;;;84.87;78.87;;;;;;;;;;1838729;77;25430;-56
2023/02/23 12:02:52;;;;;;;89.45;83.42;;;;;;;;;;1823610;77;27377;-58
2023/02/23 12:05:27;;;;;;;84.15;78.33;;;;;;;;;;1832575;76;25852;-60
2023/02/23 12:08:07;;;;;;;86.63;80.42;;;;;;;;;;1834295;76;25500;-58
2023/02/23 12:10:43;;;;;;;62.70;58.00;;;;;;;;;;1829199;76;25408;-56
2023/02/23 12:13:26;;;;;;;85.95;79.87;;;;;;;;;;1833307;77;25434;-55
2023/02/23 12:16:15;;;;;;;89.03;82.45;;;;;;;;;;1825869;77;27401;-55
2023/02/23 12:18:49;;;;;;;86.00;79.40;;;;;;;;;;1827172;77;25449;-54
2023/02/23 12:21:39;;;;;;;87.00;80.47;;;;;;;;;;1783716;78;25446;-56
2023/02/23 12:24:16;;;;;;;85.70;79.55;;;;;;;;;;1838312;77;27683;-54
2023/02/23 12:27:02;;;;;;;86.35;80.35;;;;;;;;;;1822188;77;25673;-53
2023/02/23 12:29:42;;;;;;;88.33;82.12;;;;;;;;;;1815389;77;27985;-57
2023/02/23 12:32:30;;;;;;;85.72;79.53;;;;;;;;;;1810349;78;25322;-54
2023/02/23 12:35:01;;;;;;;87.20;80.70;;;;;;;;;;1799474;77;25447;-54
2023/02/23 12:46:21;;;;;;;27.20;24.70;;;;;;;;;;1805307;75;27186;-55
2023/02/23 12:49:04;;;;;;;88.87;82.40;;;;;;;;;;1784431;78;25772;-52
2023/02/23 12:51:37;;;;;;;89.58;83.12;;;;;;;;;;1791234;78;25542;-54
2023/02/23 12:54:05;;;;;;;77.03;71.40;;;;;;;;;;1789039;78;25564;-55
2023/02/23 12:56:42;;;;;;;90.05;83.67;;;;;;;;;;1767389;79;28073;-56
2023/02/23 12:59:20;;;;;;;90.25;83.75;;;;;;;;;;1780735;79;25752;-53
2023/02/23 13:02:15;;;;;;;55.10;50.80;;;;;;;;;;1801047;78;25703;-55
2023/02/23 13:05:05;;;;;;;43.90;40.15;;;;;;;;;;1801938;77;25771;-56
2023/02/23 13:08:00;;;;;;;24.25;21.70;;;;;;;;;;1795256;78;25397;-56
2023/02/23 13:10:48;;;;;;;14.53;10.30;;;;;;;;;;1815207;78;27655;-56
2023/02/23 13:14:02;;;;;;;18.55;16.67;;;;;;;;;;1734660;82;25605;-55
2023/02/23 13:18:47;;;;;;;18.73;12.03;;;;;;;6.86;51.87;100327.09;1907079;74;34618;-56
2023/02/23 13:21:29;;;;;;;13.55;12.15;;;;;;;6.63;52.04;100317.88;1857778;76;25267;-56
2023/02/23 13:27:54;;;;;;;13.15;6.42;;;;;;;6.38;52.44;100304.09;1860973;77;25589;-57
2023/02/23 13:30:21;;;;;;;14.65;10.28;;;;;;;6.26;53.05;100303.65;1861549;77;25573;-55
2023/02/23 13:32:53;;;;;;;18.57;16.75;;;;;;;6.17;53.55;100294.05;1860162;76;25633;-53
2023/02/23 13:35:20;;;;;;;71.17;66.02;;;;;;;6.18;53.43;100287.60;1859982;77;25445;-55
2023/02/23 13:38:17;;;;;;;45.23;41.98;;;;;;;6.14;53.96;100285.98;1859839;77;27581;-57
2023/02/23 13:40:52;;;;;;;34.03;31.17;;;;;;;6.10;53.68;100288.19;1860122;76;25594;-56
2023/02/23 13:43:36;;;;;;;38.90;35.70;;;;;;;6.00;53.53;100280.99;1860033;77;25370;-53
2023/02/23 13:46:29;;;;;;;39.65;36.83;;;;;;;5.93;54.24;100275.11;1859583;76;25914;-55
2023/02/23 13:49:31;;;;;;;22.70;20.02;;;;;;;5.90;54.28;100275.11;1858879;76;25587;-58